sensor_id;sensor_type;location;lat;lon;timestamp;P1;durP1;ratioP1;P2;durP2;ratioP2
72439;SDS011;60446;50.752;4.352;2023-07-02T00:00:07;26.23;;;7.87;;
72439;SDS011;60446;50.752;4.352;2023-07-02T00:02:36;22.40;;;6.93;;
72439;SDS011;60446;50.752;4.352;2023-07-02T00:05:04;23.75;;;7.50;;
72439;SDS011;60446;50.752;4.352;2023-07-02T00:07:33;17.65;;;6.93;;
72439;SDS011;60446;50.752;4.352;2023-07-02T00:10:03;25.92;;;7.20;;
72439;SDS011;60446;50.752;4.352;2023-07-02T00:12:31;23.60;;;7.03;;
72439;SDS011;60446;50.752;4.352;2023-07-02T00:14:58;24.27;;;7.65;;
72439;SDS011;60446;50.752;4.352;2023-07-02T00:17:25;22.67;;;7.70;;
72439;SDS011;60446;50.752;4.352;2023-07-02T00:19:52;22.13;;;7.68;;
72439;SDS011;60446;50.752;4.352;2023-07-02T00:22:20;22.02;;;7.25;;
72439;SDS011;60446;50.752;4.352;2023-07-02T00:24:47;22.13;;;7.60;;
72439;SDS011;60446;50.752;4.352;2023-07-02T00:27:16;32.83;;;8.02;;
72439;SDS011;60446;50.752;4.352;2023-07-02T00:29:44;25.20;;;7.35;;
72439;SDS011;60446;50.752;4.352;2023-07-02T00:32:11;26.10;;;7.25;;
72439;SDS011;60446;50.752;4.352;2023-07-02T00:34:38;24.80;;;7.60;;
72439;SDS011;60446;50.752;4.352;2023-07-02T00:37:06;27.33;;;7.83;;
72439;SDS011;60446;50.752;4.352;2023-07-02T00:39:33;23.05;;;7.38;;
72439;SDS011;60446;50.752;4.352;2023-07-02T00:42:01;22.88;;;8.25;;
72439;SDS011;60446;50.752;4.352;2023-07-02T00:44:31;27.08;;;7.93;;
72439;SDS011;60446;50.752;4.352;2023-07-02T00:46:58;26.23;;;8.35;;
72439;SDS011;60446;50.752;4.352;2023-07-02T00:49:26;26.00;;;8.10;;
72439;SDS011;60446;50.752;4.352;2023-07-02T00:51:53;24.08;;;7.65;;
72439;SDS011;60446;50.752;4.352;2023-07-02T00:54:22;25.30;;;8.40;;
72439;SDS011;60446;50.752;4.352;2023-07-02T00:56:49;26.63;;;8.73;;
72439;SDS011;60446;50.752;4.352;2023-07-02T00:59:16;28.50;;;8.70;;
72439;SDS011;60446;50.752;4.352;2023-07-02T01:01:44;29.07;;;8.83;;
72439;SDS011;60446;50.752;4.352;2023-07-02T01:04:18;24.08;;;7.80;;
72439;SDS011;60446;50.752;4.352;2023-07-02T01:06:46;33.42;;;8.77;;
72439;SDS011;60446;50.752;4.352;2023-07-02T01:09:14;26.67;;;8.75;;
72439;SDS011;60446;50.752;4.352;2023-07-02T01:11:49;26.40;;;8.52;;
72439;SDS011;60446;50.752;4.352;2023-07-02T01:17:05;25.60;;;8.80;;
72439;SDS011;60446;50.752;4.352;2023-07-02T01:22:23;29.05;;;8.32;;
72439;SDS011;60446;50.752;4.352;2023-07-02T01:24:53;29.42;;;8.35;;
72439;SDS011;60446;50.752;4.352;2023-07-02T01:27:21;27.60;;;7.97;;
72439;SDS011;60446;50.752;4.352;2023-07-02T01:29:52;24.95;;;8.70;;
72439;SDS011;60446;50.752;4.352;2023-07-02T01:32:19;29.73;;;10.23;;
72439;SDS011;60446;50.752;4.352;2023-07-02T01:34:49;29.05;;;9.10;;
72439;SDS011;60446;50.752;4.352;2023-07-02T01:37:20;34.25;;;9.52;;
72439;SDS011;60446;50.752;4.352;2023-07-02T01:39:47;30.23;;;9.47;;
72439;SDS011;60446;50.752;4.352;2023-07-02T01:42:15;30.90;;;9.68;;
72439;SDS011;60446;50.752;4.352;2023-07-02T01:44:46;25.90;;;8.75;;
72439;SDS011;60446;50.752;4.352;2023-07-02T01:47:16;30.70;;;9.45;;
72439;SDS011;60446;50.752;4.352;2023-07-02T01:49:43;27.52;;;9.40;;
72439;SDS011;60446;50.752;4.352;2023-07-02T01:52:10;32.30;;;10.23;;
72439;SDS011;60446;50.752;4.352;2023-07-02T01:54:37;37.42;;;9.65;;
72439;SDS011;60446;50.752;4.352;2023-07-02T01:57:04;28.25;;;8.65;;
72439;SDS011;60446;50.752;4.352;2023-07-02T01:59:32;33.15;;;10.23;;
72439;SDS011;60446;50.752;4.352;2023-07-02T02:01:59;36.25;;;10.13;;
72439;SDS011;60446;50.752;4.352;2023-07-02T02:04:26;31.10;;;10.20;;
72439;SDS011;60446;50.752;4.352;2023-07-02T02:06:53;33.35;;;9.48;;
72439;SDS011;60446;50.752;4.352;2023-07-02T02:09:22;35.88;;;10.32;;
72439;SDS011;60446;50.752;4.352;2023-07-02T02:11:49;30.40;;;9.55;;
72439;SDS011;60446;50.752;4.352;2023-07-02T02:14:19;27.67;;;9.18;;
72439;SDS011;60446;50.752;4.352;2023-07-02T02:16:46;30.93;;;9.60;;
72439;SDS011;60446;50.752;4.352;2023-07-02T02:19:13;35.03;;;10.00;;
72439;SDS011;60446;50.752;4.352;2023-07-02T02:21:42;35.55;;;10.25;;
72439;SDS011;60446;50.752;4.352;2023-07-02T02:24:09;37.00;;;9.52;;
72439;SDS011;60446;50.752;4.352;2023-07-02T02:26:37;32.80;;;9.52;;
72439;SDS011;60446;50.752;4.352;2023-07-02T02:29:04;39.40;;;10.27;;
72439;SDS011;60446;50.752;4.352;2023-07-02T02:31:32;37.70;;;11.15;;
72439;SDS011;60446;50.752;4.352;2023-07-02T02:34:00;33.65;;;11.88;;
72439;SDS011;60446;50.752;4.352;2023-07-02T02:36:28;34.30;;;11.38;;
72439;SDS011;60446;50.752;4.352;2023-07-02T02:38:55;30.02;;;9.75;;
72439;SDS011;60446;50.752;4.352;2023-07-02T02:41:24;33.73;;;10.20;;
72439;SDS011;60446;50.752;4.352;2023-07-02T02:43:52;36.13;;;11.73;;
72439;SDS011;60446;50.752;4.352;2023-07-02T02:46:21;30.00;;;9.95;;
72439;SDS011;60446;50.752;4.352;2023-07-02T02:48:49;32.25;;;10.50;;
72439;SDS011;60446;50.752;4.352;2023-07-02T02:51:18;35.70;;;11.23;;
72439;SDS011;60446;50.752;4.352;2023-07-02T02:53:45;35.57;;;11.53;;
72439;SDS011;60446;50.752;4.352;2023-07-02T02:56:13;36.05;;;11.43;;
72439;SDS011;60446;50.752;4.352;2023-07-02T02:58:40;32.47;;;10.50;;
72439;SDS011;60446;50.752;4.352;2023-07-02T03:01:07;32.97;;;10.75;;
72439;SDS011;60446;50.752;4.352;2023-07-02T03:03:39;30.67;;;10.80;;
72439;SDS011;60446;50.752;4.352;2023-07-02T03:06:13;36.93;;;11.10;;
72439;SDS011;60446;50.752;4.352;2023-07-02T03:08:41;36.85;;;11.68;;
72439;SDS011;60446;50.752;4.352;2023-07-02T03:11:09;40.38;;;12.27;;
72439;SDS011;60446;50.752;4.352;2023-07-02T03:13:36;33.50;;;11.20;;
72439;SDS011;60446;50.752;4.352;2023-07-02T03:16:03;34.85;;;10.60;;
72439;SDS011;60446;50.752;4.352;2023-07-02T03:18:31;40.17;;;10.83;;
72439;SDS011;60446;50.752;4.352;2023-07-02T03:20:59;35.38;;;10.75;;
72439;SDS011;60446;50.752;4.352;2023-07-02T03:23:26;38.92;;;11.15;;
72439;SDS011;60446;50.752;4.352;2023-07-02T03:25:53;38.55;;;11.70;;
72439;SDS011;60446;50.752;4.352;2023-07-02T03:28:21;37.42;;;11.95;;
72439;SDS011;60446;50.752;4.352;2023-07-02T03:30:48;42.50;;;11.63;;
72439;SDS011;60446;50.752;4.352;2023-07-02T03:33:15;44.08;;;11.38;;
72439;SDS011;60446;50.752;4.352;2023-07-02T03:35:42;38.15;;;12.45;;
72439;SDS011;60446;50.752;4.352;2023-07-02T03:38:09;37.45;;;10.80;;
72439;SDS011;60446;50.752;4.352;2023-07-02T03:40:37;42.55;;;12.23;;
72439;SDS011;60446;50.752;4.352;2023-07-02T03:43:05;41.10;;;11.90;;
72439;SDS011;60446;50.752;4.352;2023-07-02T03:45:32;36.60;;;11.43;;
72439;SDS011;60446;50.752;4.352;2023-07-02T03:47:59;35.95;;;11.85;;
72439;SDS011;60446;50.752;4.352;2023-07-02T03:50:26;39.83;;;12.70;;
72439;SDS011;60446;50.752;4.352;2023-07-02T03:52:53;35.28;;;11.50;;
72439;SDS011;60446;50.752;4.352;2023-07-02T03:55:21;33.53;;;11.10;;
72439;SDS011;60446;50.752;4.352;2023-07-02T03:57:48;44.58;;;12.18;;
72439;SDS011;60446;50.752;4.352;2023-07-02T04:00:15;35.92;;;10.95;;
72439;SDS011;60446;50.752;4.352;2023-07-02T04:02:42;36.20;;;11.10;;
72439;SDS011;60446;50.752;4.352;2023-07-02T04:05:10;37.78;;;11.25;;
72439;SDS011;60446;50.752;4.352;2023-07-02T04:07:37;38.17;;;12.00;;
72439;SDS011;60446;50.752;4.352;2023-07-02T04:10:04;39.58;;;11.05;;
72439;SDS011;60446;50.752;4.352;2023-07-02T04:12:32;42.25;;;12.88;;
72439;SDS011;60446;50.752;4.352;2023-07-02T04:15:00;37.22;;;11.23;;
72439;SDS011;60446;50.752;4.352;2023-07-02T04:17:27;42.00;;;11.65;;
72439;SDS011;60446;50.752;4.352;2023-07-02T04:19:54;47.23;;;12.20;;
72439;SDS011;60446;50.752;4.352;2023-07-02T04:22:22;38.03;;;11.70;;
72439;SDS011;60446;50.752;4.352;2023-07-02T04:24:49;37.03;;;10.52;;
72439;SDS011;60446;50.752;4.352;2023-07-02T04:27:21;34.00;;;11.70;;
72439;SDS011;60446;50.752;4.352;2023-07-02T04:30:08;37.30;;;11.13;;
72439;SDS011;60446;50.752;4.352;2023-07-02T04:32:37;36.00;;;10.10;;
72439;SDS011;60446;50.752;4.352;2023-07-02T04:35:06;45.25;;;11.77;;
72439;SDS011;60446;50.752;4.352;2023-07-02T04:37:35;36.58;;;11.38;;
72439;SDS011;60446;50.752;4.352;2023-07-02T04:40:03;37.30;;;11.82;;
72439;SDS011;60446;50.752;4.352;2023-07-02T04:42:36;35.35;;;11.65;;
72439;SDS011;60446;50.752;4.352;2023-07-02T04:45:14;33.67;;;10.80;;
72439;SDS011;60446;50.752;4.352;2023-07-02T04:47:44;36.67;;;11.85;;
72439;SDS011;60446;50.752;4.352;2023-07-02T04:50:11;40.92;;;11.55;;
72439;SDS011;60446;50.752;4.352;2023-07-02T04:52:39;38.83;;;11.52;;
72439;SDS011;60446;50.752;4.352;2023-07-02T04:55:06;38.03;;;12.00;;
72439;SDS011;60446;50.752;4.352;2023-07-02T04:57:34;40.73;;;13.00;;
72439;SDS011;60446;50.752;4.352;2023-07-02T05:00:01;35.28;;;11.52;;
72439;SDS011;60446;50.752;4.352;2023-07-02T05:02:35;37.28;;;10.95;;
72439;SDS011;60446;50.752;4.352;2023-07-02T05:05:02;38.88;;;11.48;;
72439;SDS011;60446;50.752;4.352;2023-07-02T05:07:30;36.60;;;12.38;;
72439;SDS011;60446;50.752;4.352;2023-07-02T05:09:57;42.03;;;12.17;;
72439;SDS011;60446;50.752;4.352;2023-07-02T05:12:24;36.28;;;11.73;;
72439;SDS011;60446;50.752;4.352;2023-07-02T05:14:51;42.17;;;11.30;;
72439;SDS011;60446;50.752;4.352;2023-07-02T05:17:18;36.88;;;11.32;;
72439;SDS011;60446;50.752;4.352;2023-07-02T05:19:45;37.97;;;11.30;;
72439;SDS011;60446;50.752;4.352;2023-07-02T05:22:13;42.10;;;12.67;;
72439;SDS011;60446;50.752;4.352;2023-07-02T05:24:40;40.38;;;12.13;;
72439;SDS011;60446;50.752;4.352;2023-07-02T05:27:07;44.60;;;11.80;;
72439;SDS011;60446;50.752;4.352;2023-07-02T05:29:34;36.92;;;11.57;;
72439;SDS011;60446;50.752;4.352;2023-07-02T05:32:02;38.47;;;12.57;;
72439;SDS011;60446;50.752;4.352;2023-07-02T05:34:29;36.90;;;12.30;;
72439;SDS011;60446;50.752;4.352;2023-07-02T05:36:56;34.03;;;11.80;;
72439;SDS011;60446;50.752;4.352;2023-07-02T05:39:24;36.00;;;12.35;;
72439;SDS011;60446;50.752;4.352;2023-07-02T05:41:51;40.22;;;12.05;;
72439;SDS011;60446;50.752;4.352;2023-07-02T05:44:18;31.75;;;11.48;;
72439;SDS011;60446;50.752;4.352;2023-07-02T05:46:45;37.83;;;13.10;;
72439;SDS011;60446;50.752;4.352;2023-07-02T05:49:12;45.42;;;13.60;;
72439;SDS011;60446;50.752;4.352;2023-07-02T05:51:39;35.45;;;11.68;;
72439;SDS011;60446;50.752;4.352;2023-07-02T05:54:06;35.22;;;12.20;;
72439;SDS011;60446;50.752;4.352;2023-07-02T05:56:34;37.00;;;10.50;;
72439;SDS011;60446;50.752;4.352;2023-07-02T05:59:01;37.93;;;12.37;;
72439;SDS011;60446;50.752;4.352;2023-07-02T06:01:28;35.75;;;11.75;;
72439;SDS011;60446;50.752;4.352;2023-07-02T06:03:55;36.03;;;11.50;;
72439;SDS011;60446;50.752;4.352;2023-07-02T06:06:22;37.10;;;11.30;;
72439;SDS011;60446;50.752;4.352;2023-07-02T06:08:51;36.08;;;11.48;;
72439;SDS011;60446;50.752;4.352;2023-07-02T06:11:18;31.50;;;11.67;;
72439;SDS011;60446;50.752;4.352;2023-07-02T06:13:45;36.08;;;10.80;;
72439;SDS011;60446;50.752;4.352;2023-07-02T06:16:12;37.15;;;11.70;;
72439;SDS011;60446;50.752;4.352;2023-07-02T06:18:39;36.25;;;11.35;;
72439;SDS011;60446;50.752;4.352;2023-07-02T06:21:07;32.80;;;11.23;;
72439;SDS011;60446;50.752;4.352;2023-07-02T06:23:44;28.87;;;10.37;;
72439;SDS011;60446;50.752;4.352;2023-07-02T06:26:11;39.42;;;10.95;;
72439;SDS011;60446;50.752;4.352;2023-07-02T06:28:38;34.85;;;10.43;;
72439;SDS011;60446;50.752;4.352;2023-07-02T06:31:06;34.65;;;10.80;;
72439;SDS011;60446;50.752;4.352;2023-07-02T06:33:33;32.85;;;9.95;;
72439;SDS011;60446;50.752;4.352;2023-07-02T06:36:00;36.73;;;10.03;;
72439;SDS011;60446;50.752;4.352;2023-07-02T06:38:27;33.85;;;10.02;;
72439;SDS011;60446;50.752;4.352;2023-07-02T06:40:54;35.90;;;10.52;;
72439;SDS011;60446;50.752;4.352;2023-07-02T06:43:21;32.85;;;10.38;;
72439;SDS011;60446;50.752;4.352;2023-07-02T06:45:48;29.83;;;10.20;;
72439;SDS011;60446;50.752;4.352;2023-07-02T06:48:16;33.93;;;9.40;;
72439;SDS011;60446;50.752;4.352;2023-07-02T06:50:48;34.55;;;10.40;;
72439;SDS011;60446;50.752;4.352;2023-07-02T06:53:15;33.72;;;10.23;;
72439;SDS011;60446;50.752;4.352;2023-07-02T06:55:42;30.23;;;9.90;;
72439;SDS011;60446;50.752;4.352;2023-07-02T06:58:10;32.70;;;9.98;;
72439;SDS011;60446;50.752;4.352;2023-07-02T07:00:37;34.50;;;10.43;;
72439;SDS011;60446;50.752;4.352;2023-07-02T07:03:04;32.97;;;9.98;;
72439;SDS011;60446;50.752;4.352;2023-07-02T07:05:31;33.28;;;10.23;;
72439;SDS011;60446;50.752;4.352;2023-07-02T07:07:59;29.45;;;10.68;;
72439;SDS011;60446;50.752;4.352;2023-07-02T07:10:27;32.85;;;9.48;;
72439;SDS011;60446;50.752;4.352;2023-07-02T07:12:55;29.93;;;9.63;;
72439;SDS011;60446;50.752;4.352;2023-07-02T07:15:22;32.50;;;9.57;;
72439;SDS011;60446;50.752;4.352;2023-07-02T07:17:49;31.55;;;9.77;;
72439;SDS011;60446;50.752;4.352;2023-07-02T07:20:16;26.13;;;8.95;;
72439;SDS011;60446;50.752;4.352;2023-07-02T07:22:43;31.45;;;8.52;;
72439;SDS011;60446;50.752;4.352;2023-07-02T07:25:10;28.07;;;8.80;;
72439;SDS011;60446;50.752;4.352;2023-07-02T07:27:37;26.73;;;8.55;;
72439;SDS011;60446;50.752;4.352;2023-07-02T07:30:05;28.58;;;8.35;;
72439;SDS011;60446;50.752;4.352;2023-07-02T07:32:32;24.63;;;8.27;;
72439;SDS011;60446;50.752;4.352;2023-07-02T07:35:00;24.45;;;7.80;;
72439;SDS011;60446;50.752;4.352;2023-07-02T07:37:27;29.40;;;7.83;;
72439;SDS011;60446;50.752;4.352;2023-07-02T07:39:54;24.33;;;7.90;;
72439;SDS011;60446;50.752;4.352;2023-07-02T07:42:21;24.05;;;7.65;;
72439;SDS011;60446;50.752;4.352;2023-07-02T07:44:48;23.70;;;6.75;;
72439;SDS011;60446;50.752;4.352;2023-07-02T07:47:15;24.95;;;8.93;;
72439;SDS011;60446;50.752;4.352;2023-07-02T07:49:43;23.33;;;7.80;;
72439;SDS011;60446;50.752;4.352;2023-07-02T07:52:10;22.52;;;6.70;;
72439;SDS011;60446;50.752;4.352;2023-07-02T07:54:37;19.85;;;6.47;;
72439;SDS011;60446;50.752;4.352;2023-07-02T07:57:04;26.20;;;7.20;;
72439;SDS011;60446;50.752;4.352;2023-07-02T07:59:32;23.05;;;6.13;;
72439;SDS011;60446;50.752;4.352;2023-07-02T08:01:59;20.80;;;6.73;;
72439;SDS011;60446;50.752;4.352;2023-07-02T08:04:27;21.05;;;6.22;;
72439;SDS011;60446;50.752;4.352;2023-07-02T08:06:54;23.35;;;7.45;;
72439;SDS011;60446;50.752;4.352;2023-07-02T08:09:23;19.67;;;6.55;;
72439;SDS011;60446;50.752;4.352;2023-07-02T08:11:51;25.42;;;7.65;;
72439;SDS011;60446;50.752;4.352;2023-07-02T08:14:18;23.23;;;7.30;;
72439;SDS011;60446;50.752;4.352;2023-07-02T08:16:45;21.33;;;6.88;;
72439;SDS011;60446;50.752;4.352;2023-07-02T08:19:12;23.23;;;6.68;;
72439;SDS011;60446;50.752;4.352;2023-07-02T08:21:40;22.23;;;6.07;;
72439;SDS011;60446;50.752;4.352;2023-07-02T08:24:07;20.42;;;6.93;;
72439;SDS011;60446;50.752;4.352;2023-07-02T08:26:34;22.03;;;7.43;;
72439;SDS011;60446;50.752;4.352;2023-07-02T08:29:01;24.90;;;7.22;;
72439;SDS011;60446;50.752;4.352;2023-07-02T08:31:28;21.65;;;7.13;;
72439;SDS011;60446;50.752;4.352;2023-07-02T08:33:55;20.10;;;6.97;;
72439;SDS011;60446;50.752;4.352;2023-07-02T08:36:23;25.98;;;7.35;;
72439;SDS011;60446;50.752;4.352;2023-07-02T08:38:50;23.67;;;7.47;;
72439;SDS011;60446;50.752;4.352;2023-07-02T08:41:17;19.45;;;6.97;;
72439;SDS011;60446;50.752;4.352;2023-07-02T08:43:47;18.77;;;6.32;;
72439;SDS011;60446;50.752;4.352;2023-07-02T08:46:15;21.88;;;7.15;;
72439;SDS011;60446;50.752;4.352;2023-07-02T08:48:43;21.15;;;6.88;;
72439;SDS011;60446;50.752;4.352;2023-07-02T08:51:10;23.17;;;6.47;;
72439;SDS011;60446;50.752;4.352;2023-07-02T08:53:38;19.52;;;6.47;;
72439;SDS011;60446;50.752;4.352;2023-07-02T08:56:05;22.13;;;6.88;;
72439;SDS011;60446;50.752;4.352;2023-07-02T08:58:32;19.90;;;7.05;;
72439;SDS011;60446;50.752;4.352;2023-07-02T09:01:06;21.23;;;6.60;;
72439;SDS011;60446;50.752;4.352;2023-07-02T09:03:36;18.80;;;6.73;;
72439;SDS011;60446;50.752;4.352;2023-07-02T09:06:05;18.75;;;6.30;;
72439;SDS011;60446;50.752;4.352;2023-07-02T09:08:34;23.60;;;6.70;;
72439;SDS011;60446;50.752;4.352;2023-07-02T09:11:09;20.30;;;6.32;;
72439;SDS011;60446;50.752;4.352;2023-07-02T09:13:48;20.52;;;5.82;;
72439;SDS011;60446;50.752;4.352;2023-07-02T09:16:28;15.77;;;6.40;;
72439;SDS011;60446;50.752;4.352;2023-07-02T09:21:38;17.83;;;6.18;;
72439;SDS011;60446;50.752;4.352;2023-07-02T09:24:18;19.67;;;6.35;;
72439;SDS011;60446;50.752;4.352;2023-07-02T09:26:50;21.17;;;6.13;;
72439;SDS011;60446;50.752;4.352;2023-07-02T09:32:01;19.13;;;5.82;;
72439;SDS011;60446;50.752;4.352;2023-07-02T09:34:37;19.80;;;5.90;;
72439;SDS011;60446;50.752;4.352;2023-07-02T09:37:09;19.95;;;5.60;;
72439;SDS011;60446;50.752;4.352;2023-07-02T09:39:36;18.67;;;5.60;;
72439;SDS011;60446;50.752;4.352;2023-07-02T09:42:05;18.23;;;6.23;;
72439;SDS011;60446;50.752;4.352;2023-07-02T09:44:34;17.58;;;5.38;;
72439;SDS011;60446;50.752;4.352;2023-07-02T09:47:03;18.30;;;5.38;;
72439;SDS011;60446;50.752;4.352;2023-07-02T09:49:36;20.60;;;6.20;;
72439;SDS011;60446;50.752;4.352;2023-07-02T09:52:15;16.13;;;6.10;;
72439;SDS011;60446;50.752;4.352;2023-07-02T09:54:44;18.53;;;5.23;;
72439;SDS011;60446;50.752;4.352;2023-07-02T09:57:11;16.55;;;6.20;;
72439;SDS011;60446;50.752;4.352;2023-07-02T09:59:39;22.83;;;6.15;;
72439;SDS011;60446;50.752;4.352;2023-07-02T10:02:08;18.98;;;6.03;;
72439;SDS011;60446;50.752;4.352;2023-07-02T10:04:43;20.15;;;6.20;;
72439;SDS011;60446;50.752;4.352;2023-07-02T10:07:28;17.53;;;6.03;;
72439;SDS011;60446;50.752;4.352;2023-07-02T10:09:58;18.65;;;5.95;;
72439;SDS011;60446;50.752;4.352;2023-07-02T10:12:27;17.48;;;6.10;;
72439;SDS011;60446;50.752;4.352;2023-07-02T10:14:59;19.73;;;6.18;;
72439;SDS011;60446;50.752;4.352;2023-07-02T10:17:27;17.90;;;6.00;;
72439;SDS011;60446;50.752;4.352;2023-07-02T10:20:01;16.63;;;7.03;;
72439;SDS011;60446;50.752;4.352;2023-07-02T10:22:47;21.50;;;6.57;;
72439;SDS011;60446;50.752;4.352;2023-07-02T10:25:26;18.15;;;6.03;;
72439;SDS011;60446;50.752;4.352;2023-07-02T10:28:00;20.27;;;5.85;;
72439;SDS011;60446;50.752;4.352;2023-07-02T10:30:39;18.20;;;5.30;;
72439;SDS011;60446;50.752;4.352;2023-07-02T10:33:11;16.80;;;6.20;;
72439;SDS011;60446;50.752;4.352;2023-07-02T10:35:41;16.98;;;5.93;;
72439;SDS011;60446;50.752;4.352;2023-07-02T10:38:19;19.67;;;6.10;;
72439;SDS011;60446;50.752;4.352;2023-07-02T10:40:55;17.38;;;6.20;;
72439;SDS011;60446;50.752;4.352;2023-07-02T10:43:29;18.90;;;6.03;;
72439;SDS011;60446;50.752;4.352;2023-07-02T10:45:59;16.63;;;5.50;;
72439;SDS011;60446;50.752;4.352;2023-07-02T10:48:35;21.23;;;5.97;;
72439;SDS011;60446;50.752;4.352;2023-07-02T10:51:10;16.50;;;5.13;;
72439;SDS011;60446;50.752;4.352;2023-07-02T10:53:39;22.60;;;6.38;;
72439;SDS011;60446;50.752;4.352;2023-07-02T10:56:06;18.17;;;5.78;;
72439;SDS011;60446;50.752;4.352;2023-07-02T10:58:41;16.70;;;5.60;;
72439;SDS011;60446;50.752;4.352;2023-07-02T11:01:09;18.85;;;6.25;;
72439;SDS011;60446;50.752;4.352;2023-07-02T11:03:38;21.67;;;6.43;;
72439;SDS011;60446;50.752;4.352;2023-07-02T11:06:05;20.45;;;6.30;;
72439;SDS011;60446;50.752;4.352;2023-07-02T11:08:35;20.40;;;6.53;;
72439;SDS011;60446;50.752;4.352;2023-07-02T11:11:06;22.27;;;6.87;;
72439;SDS011;60446;50.752;4.352;2023-07-02T11:13:34;19.10;;;6.50;;
72439;SDS011;60446;50.752;4.352;2023-07-02T11:16:44;16.98;;;6.20;;
72439;SDS011;60446;50.752;4.352;2023-07-02T11:19:08;18.35;;;5.60;;
72439;SDS011;60446;50.752;4.352;2023-07-02T11:21:36;21.88;;;6.28;;
72439;SDS011;60446;50.752;4.352;2023-07-02T11:24:06;18.97;;;6.07;;
72439;SDS011;60446;50.752;4.352;2023-07-02T11:26:37;20.35;;;5.57;;
72439;SDS011;60446;50.752;4.352;2023-07-02T11:29:12;18.60;;;5.30;;
72439;SDS011;60446;50.752;4.352;2023-07-02T11:31:44;20.08;;;5.57;;
72439;SDS011;60446;50.752;4.352;2023-07-02T11:34:15;18.33;;;5.38;;
72439;SDS011;60446;50.752;4.352;2023-07-02T11:36:46;20.50;;;6.60;;
72439;SDS011;60446;50.752;4.352;2023-07-02T11:39:14;16.38;;;5.95;;
72439;SDS011;60446;50.752;4.352;2023-07-02T11:41:44;17.70;;;5.93;;
72439;SDS011;60446;50.752;4.352;2023-07-02T11:44:12;16.98;;;5.32;;
72439;SDS011;60446;50.752;4.352;2023-07-02T11:46:39;15.95;;;5.45;;
72439;SDS011;60446;50.752;4.352;2023-07-02T11:49:06;17.33;;;6.10;;
72439;SDS011;60446;50.752;4.352;2023-07-02T11:51:37;15.65;;;5.60;;
72439;SDS011;60446;50.752;4.352;2023-07-02T11:54:15;19.45;;;6.15;;
72439;SDS011;60446;50.752;4.352;2023-07-02T11:56:45;16.92;;;5.55;;
72439;SDS011;60446;50.752;4.352;2023-07-02T11:59:12;20.38;;;5.80;;
72439;SDS011;60446;50.752;4.352;2023-07-02T12:01:40;17.70;;;6.03;;
72439;SDS011;60446;50.752;4.352;2023-07-02T12:04:16;21.65;;;6.28;;
72439;SDS011;60446;50.752;4.352;2023-07-02T12:06:59;17.60;;;5.43;;
72439;SDS011;60446;50.752;4.352;2023-07-02T12:09:31;15.05;;;5.38;;
72439;SDS011;60446;50.752;4.352;2023-07-02T12:11:58;19.05;;;5.45;;
72439;SDS011;60446;50.752;4.352;2023-07-02T12:14:25;17.77;;;5.47;;
72439;SDS011;60446;50.752;4.352;2023-07-02T12:16:57;17.35;;;4.90;;
72439;SDS011;60446;50.752;4.352;2023-07-02T12:19:24;18.85;;;6.40;;
72439;SDS011;60446;50.752;4.352;2023-07-02T12:21:51;15.98;;;5.32;;
72439;SDS011;60446;50.752;4.352;2023-07-02T12:24:19;16.42;;;5.72;;
72439;SDS011;60446;50.752;4.352;2023-07-02T12:26:46;17.10;;;5.87;;
72439;SDS011;60446;50.752;4.352;2023-07-02T12:29:13;19.38;;;5.22;;
72439;SDS011;60446;50.752;4.352;2023-07-02T12:31:40;16.85;;;5.32;;
72439;SDS011;60446;50.752;4.352;2023-07-02T12:34:07;16.20;;;5.15;;
72439;SDS011;60446;50.752;4.352;2023-07-02T12:36:34;15.68;;;5.20;;
72439;SDS011;60446;50.752;4.352;2023-07-02T12:39:02;17.07;;;6.00;;
72439;SDS011;60446;50.752;4.352;2023-07-02T12:41:29;13.73;;;5.22;;
72439;SDS011;60446;50.752;4.352;2023-07-02T12:43:56;12.88;;;4.50;;
72439;SDS011;60446;50.752;4.352;2023-07-02T12:46:23;14.55;;;4.55;;
72439;SDS011;60446;50.752;4.352;2023-07-02T12:48:51;17.63;;;5.55;;
72439;SDS011;60446;50.752;4.352;2023-07-02T12:51:18;16.23;;;4.77;;
72439;SDS011;60446;50.752;4.352;2023-07-02T12:53:45;16.35;;;4.60;;
72439;SDS011;60446;50.752;4.352;2023-07-02T12:56:13;16.35;;;4.75;;
72439;SDS011;60446;50.752;4.352;2023-07-02T12:58:40;16.17;;;5.03;;
72439;SDS011;60446;50.752;4.352;2023-07-02T13:01:20;12.43;;;5.18;;
72439;SDS011;60446;50.752;4.352;2023-07-02T13:03:55;19.37;;;5.20;;
72439;SDS011;60446;50.752;4.352;2023-07-02T13:06:26;16.23;;;4.60;;
72439;SDS011;60446;50.752;4.352;2023-07-02T13:08:55;15.10;;;4.45;;
72439;SDS011;60446;50.752;4.352;2023-07-02T13:11:25;15.32;;;4.97;;
72439;SDS011;60446;50.752;4.352;2023-07-02T13:13:56;16.02;;;4.90;;
72439;SDS011;60446;50.752;4.352;2023-07-02T13:16:26;15.87;;;5.27;;
72439;SDS011;60446;50.752;4.352;2023-07-02T13:18:53;17.95;;;4.93;;
72439;SDS011;60446;50.752;4.352;2023-07-02T13:21:23;12.80;;;4.22;;
72439;SDS011;60446;50.752;4.352;2023-07-02T13:23:50;13.82;;;4.68;;
72439;SDS011;60446;50.752;4.352;2023-07-02T13:26:17;12.55;;;4.63;;
72439;SDS011;60446;50.752;4.352;2023-07-02T13:28:44;16.23;;;4.80;;
72439;SDS011;60446;50.752;4.352;2023-07-02T13:31:14;12.85;;;4.53;;
72439;SDS011;60446;50.752;4.352;2023-07-02T13:33:42;11.25;;;4.30;;
72439;SDS011;60446;50.752;4.352;2023-07-02T13:36:09;14.55;;;4.90;;
72439;SDS011;60446;50.752;4.352;2023-07-02T13:38:37;14.93;;;4.70;;
72439;SDS011;60446;50.752;4.352;2023-07-02T13:41:04;16.37;;;4.33;;
72439;SDS011;60446;50.752;4.352;2023-07-02T13:43:31;18.05;;;5.05;;
72439;SDS011;60446;50.752;4.352;2023-07-02T13:45:58;14.02;;;4.40;;
72439;SDS011;60446;50.752;4.352;2023-07-02T13:48:26;16.75;;;4.95;;
72439;SDS011;60446;50.752;4.352;2023-07-02T13:50:54;16.90;;;5.05;;
72439;SDS011;60446;50.752;4.352;2023-07-02T13:53:21;14.77;;;5.10;;
72439;SDS011;60446;50.752;4.352;2023-07-02T13:55:48;16.63;;;4.88;;
72439;SDS011;60446;50.752;4.352;2023-07-02T13:58:16;16.63;;;4.57;;
72439;SDS011;60446;50.752;4.352;2023-07-02T14:00:55;16.00;;;5.05;;
72439;SDS011;60446;50.752;4.352;2023-07-02T14:03:23;17.13;;;4.85;;
72439;SDS011;60446;50.752;4.352;2023-07-02T14:05:50;12.67;;;4.37;;
72439;SDS011;60446;50.752;4.352;2023-07-02T14:08:18;14.00;;;4.95;;
72439;SDS011;60446;50.752;4.352;2023-07-02T14:10:45;16.00;;;5.22;;
72439;SDS011;60446;50.752;4.352;2023-07-02T14:13:13;15.15;;;4.60;;
72439;SDS011;60446;50.752;4.352;2023-07-02T14:15:40;14.88;;;4.85;;
72439;SDS011;60446;50.752;4.352;2023-07-02T14:18:07;12.07;;;4.70;;
72439;SDS011;60446;50.752;4.352;2023-07-02T14:20:34;14.90;;;4.47;;
72439;SDS011;60446;50.752;4.352;2023-07-02T14:23:01;16.67;;;4.82;;
72439;SDS011;60446;50.752;4.352;2023-07-02T14:25:28;16.50;;;5.10;;
72439;SDS011;60446;50.752;4.352;2023-07-02T14:28:07;14.35;;;4.32;;
72439;SDS011;60446;50.752;4.352;2023-07-02T14:30:36;13.47;;;5.13;;
72439;SDS011;60446;50.752;4.352;2023-07-02T14:33:03;14.60;;;4.97;;
72439;SDS011;60446;50.752;4.352;2023-07-02T14:35:32;16.10;;;4.40;;
72439;SDS011;60446;50.752;4.352;2023-07-02T14:37:59;14.90;;;5.13;;
72439;SDS011;60446;50.752;4.352;2023-07-02T14:40:26;14.95;;;4.05;;
72439;SDS011;60446;50.752;4.352;2023-07-02T14:42:53;19.40;;;4.87;;
72439;SDS011;60446;50.752;4.352;2023-07-02T14:45:20;13.73;;;5.13;;
72439;SDS011;60446;50.752;4.352;2023-07-02T14:47:47;12.95;;;4.50;;
72439;SDS011;60446;50.752;4.352;2023-07-02T14:50:15;15.32;;;5.00;;